Terminal Aerodrome Forecast
Issued by NWS San Angelo, TX

Home | Current Version | Previous Version | Text Only | Print | Product List | Glossary On
Versions: 1 2 3 4 5 6 7 8 9 10 11 12 13 14 15
000
FTUS44 KSJT 231700
TAFSJT
TAF
KSJT 231720Z 2318/2418 19018G28KT P6SM SCT080
     FM240200 17014KT P6SM SCT100
     FM241200 17014G24KT P6SM SCT025=

USA.gov is the U.S. government's official web portal to all federal, state and local government web resources and services.